Terminal Aerodrome Forecast
Issued by NWS Corpus Christi, TX

Home | Current Version | Previous Version | Text Only | Print | Product List | Glossary On
Versions: 1 2 3 4 5 6 7 8 9 10 11 12 13 14
339
FTUS44 KCRP 250538
TAFCRP
TAF
KCRP 250538Z 2506/2606 13008KT P6SM FEW022
     FM251400 13010KT P6SM VCSH SCT025
     FM251700 14014G20KT P6SM SCT030 SCT050
     FM260100 13010KT P6SM SCT020 BKN250=

USA.gov is the U.S. government's official web portal to all federal, state and local government web resources and services.